Papineau, Illinois
Current Conditions -  °F | °C
As of 11:15 AM on Sunday 21 Dec 2014 (Local Time) from KIKK Reporting Station
Overcast Overcast  
Wind Chill: 25°   Ceiling: 2800
Heat Index: 34°   Visibility: 10mi
Dew Point: 28°   Wind: 13mph
Humidity: 79%   Direction: 160°SSE
Pressure: 30.21"   Gusts: NA
Location:  40.97°N, 87.72°W
Report Text: KIKK 211715Z AUTO 16011KT 10SM OVC028 01/M02 A3021 RMK AO2 T00101022
Loading
Personal Weather Stations






























Interactive Weather Map New forecast layout! Learn more

10-Day Weather Forecast

Advertisements
Track Severe Weather on mobile